sensor_id;sensor_type;location;lat;lon;timestamp;temperature;humidity
20985;DHT22;10651;47.552;7.606;2023-04-24T05:58:37;12.40;99.90
20985;DHT22;10651;47.552;7.606;2023-04-24T06:01:03;12.60;99.90
20985;DHT22;10651;47.552;7.606;2023-04-24T06:03:29;12.70;99.90
20985;DHT22;10651;47.552;7.606;2023-04-24T06:05:55;12.70;99.90
20985;DHT22;10651;47.552;7.606;2023-04-24T06:08:20;12.80;99.90
20985;DHT22;10651;47.552;7.606;2023-04-24T06:10:46;12.90;99.90
20985;DHT22;10651;47.552;7.606;2023-04-24T06:13:12;12.90;99.90
20985;DHT22;10651;47.552;7.606;2023-04-24T06:15:37;12.90;99.90
20985;DHT22;10651;47.552;7.606;2023-04-24T06:18:03;12.80;99.90
20985;DHT22;10651;47.552;7.606;2023-04-24T06:20:29;12.90;99.90
20985;DHT22;10651;47.552;7.606;2023-04-24T06:22:55;12.60;99.90
20985;DHT22;10651;47.552;7.606;2023-04-24T06:25:21;12.30;99.90
20985;DHT22;10651;47.552;7.606;2023-04-24T06:27:46;12.10;99.90
20985;DHT22;10651;47.552;7.606;2023-04-24T06:30:12;11.90;99.90
20985;DHT22;10651;47.552;7.606;2023-04-24T06:32:38;11.80;99.90
20985;DHT22;10651;47.552;7.606;2023-04-24T06:35:04;11.60;99.90
20985;DHT22;10651;47.552;7.606;2023-04-24T06:37:30;11.80;99.90
20985;DHT22;10651;47.552;7.606;2023-04-24T06:39:55;12.00;99.90
20985;DHT22;10651;47.552;7.606;2023-04-24T06:42:21;11.90;99.90
20985;DHT22;10651;47.552;7.606;2023-04-24T06:44:47;11.90;99.90
20985;DHT22;10651;47.552;7.606;2023-04-24T06:47:13;11.80;99.90
20985;DHT22;10651;47.552;7.606;2023-04-24T06:49:41;12.00;99.90
20985;DHT22;10651;47.552;7.606;2023-04-24T06:52:07;11.90;99.90
20985;DHT22;10651;47.552;7.606;2023-04-24T06:54:33;11.80;99.90
20985;DHT22;10651;47.552;7.606;2023-04-24T06:56:59;11.50;99.90
20985;DHT22;10651;47.552;7.606;2023-04-24T06:59:26;11.50;99.90
20985;DHT22;10651;47.552;7.606;2023-04-24T07:01:53;11.60;99.90
20985;DHT22;10651;47.552;7.606;2023-04-24T07:04:19;11.60;99.90
20985;DHT22;10651;47.552;7.606;2023-04-24T07:06:48;11.50;99.90
20985;DHT22;10651;47.552;7.606;2023-04-24T07:09:14;11.60;99.90
20985;DHT22;10651;47.552;7.606;2023-04-24T07:11:41;11.70;99.90
20985;DHT22;10651;47.552;7.606;2023-04-24T07:14:07;11.80;99.90
20985;DHT22;10651;47.552;7.606;2023-04-24T07:16:34;11.90;99.90
20985;DHT22;10651;47.552;7.606;2023-04-24T07:19:00;11.90;99.90
20985;DHT22;10651;47.552;7.606;2023-04-24T07:21:25;11.90;99.90
20985;DHT22;10651;47.552;7.606;2023-04-24T07:23:52;11.80;99.90
20985;DHT22;10651;47.552;7.606;2023-04-24T07:26:19;11.80;99.90
20985;DHT22;10651;47.552;7.606;2023-04-24T07:28:48;11.70;99.90
20985;DHT22;10651;47.552;7.606;2023-04-24T07:31:14;11.70;99.90
20985;DHT22;10651;47.552;7.606;2023-04-24T07:33:39;11.80;99.90
20985;DHT22;10651;47.552;7.606;2023-04-24T07:36:05;11.80;99.90
20985;DHT22;10651;47.552;7.606;2023-04-24T07:38:31;12.00;99.90
20985;DHT22;10651;47.552;7.606;2023-04-24T07:40:57;12.10;99.90
20985;DHT22;10651;47.552;7.606;2023-04-24T07:43:23;12.20;99.90
20985;DHT22;10651;47.552;7.606;2023-04-24T07:45:52;12.40;99.90
20985;DHT22;10651;47.552;7.606;2023-04-24T07:48:19;12.50;99.90
20985;DHT22;10651;47.552;7.606;2023-04-24T07:50:46;12.50;99.90
20985;DHT22;10651;47.552;7.606;2023-04-24T07:53:12;12.50;99.90
20985;DHT22;10651;47.552;7.606;2023-04-24T07:55:38;12.50;99.90
20985;DHT22;10651;47.552;7.606;2023-04-24T07:58:03;12.50;99.90
20985;DHT22;10651;47.552;7.606;2023-04-24T08:00:29;12.60;99.90
20985;DHT22;10651;47.552;7.606;2023-04-24T08:02:55;12.70;99.90
20985;DHT22;10651;47.552;7.606;2023-04-24T08:05:20;12.70;99.90
20985;DHT22;10651;47.552;7.606;2023-04-24T08:07:46;12.80;99.90
20985;DHT22;10651;47.552;7.606;2023-04-24T08:10:14;13.00;99.90
20985;DHT22;10651;47.552;7.606;2023-04-24T08:12:40;13.00;99.90
20985;DHT22;10651;47.552;7.606;2023-04-24T08:15:06;13.00;99.90
20985;DHT22;10651;47.552;7.606;2023-04-24T08:20:37;13.10;99.90
20985;DHT22;10651;47.552;7.606;2023-04-24T08:23:05;13.10;99.90
20985;DHT22;10651;47.552;7.606;2023-04-24T08:26:24;13.30;99.90
20985;DHT22;10651;47.552;7.606;2023-04-24T08:29:26;13.30;99.90
20985;DHT22;10651;47.552;7.606;2023-04-24T08:32:11;13.50;99.90
20985;DHT22;10651;47.552;7.606;2023-04-24T08:38:11;13.60;99.90
20985;DHT22;10651;47.552;7.606;2023-04-24T08:40:43;13.70;99.90
20985;DHT22;10651;47.552;7.606;2023-04-24T08:46:41;13.70;99.90
20985;DHT22;10651;47.552;7.606;2023-04-24T08:49:19;13.90;99.90
20985;DHT22;10651;47.552;7.606;2023-04-24T08:52:04;13.90;99.90
20985;DHT22;10651;47.552;7.606;2023-04-24T08:55:01;14.20;99.90
20985;DHT22;10651;47.552;7.606;2023-04-24T08:57:53;14.40;99.90
20985;DHT22;10651;47.552;7.606;2023-04-24T09:03:57;14.20;99.90
20985;DHT22;10651;47.552;7.606;2023-04-24T09:07:12;14.20;99.90
20985;DHT22;10651;47.552;7.606;2023-04-24T09:10:33;14.30;99.90
20985;DHT22;10651;47.552;7.606;2023-04-24T09:13:32;14.30;99.90
20985;DHT22;10651;47.552;7.606;2023-04-24T09:16:27;14.70;99.90
20985;DHT22;10651;47.552;7.606;2023-04-24T09:19:19;14.70;99.90
20985;DHT22;10651;47.552;7.606;2023-04-24T09:25:39;14.90;99.90
20985;DHT22;10651;47.552;7.606;2023-04-24T09:33:18;14.80;99.90
20985;DHT22;10651;47.552;7.606;2023-04-24T09:42:19;14.90;99.90
20985;DHT22;10651;47.552;7.606;2023-04-24T09:48:35;15.30;99.90
20985;DHT22;10651;47.552;7.606;2023-04-24T09:51:03;15.20;99.90
20985;DHT22;10651;47.552;7.606;2023-04-24T09:53:30;15.00;99.90
20985;DHT22;10651;47.552;7.606;2023-04-24T09:55:56;14.80;99.90
20985;DHT22;10651;47.552;7.606;2023-04-24T09:58:28;15.20;99.90
20985;DHT22;10651;47.552;7.606;2023-04-24T10:00:55;15.40;99.90
20985;DHT22;10651;47.552;7.606;2023-04-24T10:03:24;15.70;99.90
20985;DHT22;10651;47.552;7.606;2023-04-24T10:05:51;16.20;99.90
20985;DHT22;10651;47.552;7.606;2023-04-24T10:08:17;16.30;99.90
20985;DHT22;10651;47.552;7.606;2023-04-24T10:10:44;16.00;99.90
20985;DHT22;10651;47.552;7.606;2023-04-24T10:13:11;16.00;99.90
20985;DHT22;10651;47.552;7.606;2023-04-24T10:15:38;15.80;99.90
20985;DHT22;10651;47.552;7.606;2023-04-24T10:18:08;15.70;99.90
20985;DHT22;10651;47.552;7.606;2023-04-24T10:20:36;15.60;99.90
20985;DHT22;10651;47.552;7.606;2023-04-24T10:23:02;15.90;99.90
20985;DHT22;10651;47.552;7.606;2023-04-24T10:25:33;16.10;99.90
20985;DHT22;10651;47.552;7.606;2023-04-24T10:28:00;16.30;99.90
20985;DHT22;10651;47.552;7.606;2023-04-24T10:30:28;15.90;99.90
20985;DHT22;10651;47.552;7.606;2023-04-24T10:32:54;15.60;99.90
20985;DHT22;10651;47.552;7.606;2023-04-24T10:35:21;15.50;99.90
20985;DHT22;10651;47.552;7.606;2023-04-24T10:37:54;15.80;99.90
20985;DHT22;10651;47.552;7.606;2023-04-24T10:40:27;16.10;99.90
20985;DHT22;10651;47.552;7.606;2023-04-24T10:42:53;16.20;99.90
20985;DHT22;10651;47.552;7.606;2023-04-24T10:45:20;16.30;99.90
20985;DHT22;10651;47.552;7.606;2023-04-24T10:48:00;16.40;99.90
20985;DHT22;10651;47.552;7.606;2023-04-24T10:50:28;17.00;99.90
20985;DHT22;10651;47.552;7.606;2023-04-24T10:53:05;17.00;99.90
20985;DHT22;10651;47.552;7.606;2023-04-24T10:58:08;17.50;99.90
20985;DHT22;10651;47.552;7.606;2023-04-24T11:00:36;17.40;99.90
20985;DHT22;10651;47.552;7.606;2023-04-24T11:03:50;16.90;99.90
20985;DHT22;10651;47.552;7.606;2023-04-24T11:06:07;16.70;99.90
20985;DHT22;10651;47.552;7.606;2023-04-24T11:08:44;16.60;99.90
20985;DHT22;10651;47.552;7.606;2023-04-24T11:11:17;16.80;99.90
20985;DHT22;10651;47.552;7.606;2023-04-24T11:16:38;16.60;99.90
20985;DHT22;10651;47.552;7.606;2023-04-24T11:19:06;16.50;99.90
20985;DHT22;10651;47.552;7.606;2023-04-24T11:21:39;16.80;99.90
20985;DHT22;10651;47.552;7.606;2023-04-24T11:32:30;17.20;99.90
20985;DHT22;10651;47.552;7.606;2023-04-24T11:34:58;16.70;99.90
20985;DHT22;10651;47.552;7.606;2023-04-24T11:37:38;16.50;99.90
20985;DHT22;10651;47.552;7.606;2023-04-24T11:40:06;16.50;99.90
20985;DHT22;10651;47.552;7.606;2023-04-24T11:42:40;16.70;99.90
20985;DHT22;10651;47.552;7.606;2023-04-24T11:45:11;16.30;99.90
20985;DHT22;10651;47.552;7.606;2023-04-24T11:47:37;16.70;99.90
20985;DHT22;10651;47.552;7.606;2023-04-24T11:50:06;16.70;99.90
20985;DHT22;10651;47.552;7.606;2023-04-24T11:52:32;16.60;99.90
20985;DHT22;10651;47.552;7.606;2023-04-24T11:54:59;16.50;99.90
20985;DHT22;10651;47.552;7.606;2023-04-24T11:57:26;16.40;99.90
20985;DHT22;10651;47.552;7.606;2023-04-24T11:59:59;16.30;99.90
20985;DHT22;10651;47.552;7.606;2023-04-24T12:02:26;16.10;99.90
20985;DHT22;10651;47.552;7.606;2023-04-24T12:04:55;15.60;99.90
20985;DHT22;10651;47.552;7.606;2023-04-24T12:07:22;15.60;99.90
20985;DHT22;10651;47.552;7.606;2023-04-24T12:09:55;15.80;99.90
20985;DHT22;10651;47.552;7.606;2023-04-24T12:12:23;16.10;99.90
20985;DHT22;10651;47.552;7.606;2023-04-24T12:14:56;15.70;99.90
20985;DHT22;10651;47.552;7.606;2023-04-24T12:17:29;16.40;99.90
20985;DHT22;10651;47.552;7.606;2023-04-24T12:22:42;17.70;99.90
20985;DHT22;10651;47.552;7.606;2023-04-24T12:25:10;17.40;99.90
20985;DHT22;10651;47.552;7.606;2023-04-24T12:27:36;17.40;99.90
20985;DHT22;10651;47.552;7.606;2023-04-24T12:30:04;16.90;99.90
20985;DHT22;10651;47.552;7.606;2023-04-24T12:32:30;16.40;99.90
20985;DHT22;10651;47.552;7.606;2023-04-24T12:34:57;15.90;99.90
20985;DHT22;10651;47.552;7.606;2023-04-24T12:37:26;15.40;99.90
20985;DHT22;10651;47.552;7.606;2023-04-24T12:42:31;15.30;99.90
20985;DHT22;10651;47.552;7.606;2023-04-24T12:45:00;15.70;99.90
20985;DHT22;10651;47.552;7.606;2023-04-24T12:47:26;16.00;99.90
20985;DHT22;10651;47.552;7.606;2023-04-24T12:49:52;15.70;99.90
20985;DHT22;10651;47.552;7.606;2023-04-24T12:52:22;15.80;99.90
20985;DHT22;10651;47.552;7.606;2023-04-24T12:54:56;16.00;99.90
20985;DHT22;10651;47.552;7.606;2023-04-24T12:57:23;15.90;99.90
20985;DHT22;10651;47.552;7.606;2023-04-24T12:59:49;15.90;99.90
20985;DHT22;10651;47.552;7.606;2023-04-24T13:02:16;16.30;99.90
20985;DHT22;10651;47.552;7.606;2023-04-24T13:04:46;16.90;99.90
20985;DHT22;10651;47.552;7.606;2023-04-24T13:07:12;17.10;99.90
20985;DHT22;10651;47.552;7.606;2023-04-24T13:09:39;17.40;99.90
20985;DHT22;10651;47.552;7.606;2023-04-24T13:12:05;18.00;99.90
20985;DHT22;10651;47.552;7.606;2023-04-24T13:16:57;18.50;99.90
20985;DHT22;10651;47.552;7.606;2023-04-24T13:19:26;19.30;99.90
20985;DHT22;10651;47.552;7.606;2023-04-24T13:21:53;18.90;99.90
20985;DHT22;10651;47.552;7.606;2023-04-24T13:24:20;18.90;99.90
20985;DHT22;10651;47.552;7.606;2023-04-24T13:26:46;19.10;99.90
20985;DHT22;10651;47.552;7.606;2023-04-24T13:29:12;18.90;99.90
20985;DHT22;10651;47.552;7.606;2023-04-24T13:31:37;19.10;99.90
20985;DHT22;10651;47.552;7.606;2023-04-24T13:34:03;18.90;99.90
20985;DHT22;10651;47.552;7.606;2023-04-24T13:36:29;19.00;99.90
20985;DHT22;10651;47.552;7.606;2023-04-24T13:38:55;19.60;99.90
20985;DHT22;10651;47.552;7.606;2023-04-24T14:05:42;19.90;99.90
20985;DHT22;10651;47.552;7.606;2023-04-24T14:08:08;18.00;99.90
20985;DHT22;10651;47.552;7.606;2023-04-24T14:10:33;18.00;99.90
20985;DHT22;10651;47.552;7.606;2023-04-24T14:12:59;17.90;99.90
20985;DHT22;10651;47.552;7.606;2023-04-24T14:15:25;18.30;99.90
20985;DHT22;10651;47.552;7.606;2023-04-24T14:17:51;18.40;99.90
20985;DHT22;10651;47.552;7.606;2023-04-24T14:20:16;18.70;99.90
20985;DHT22;10651;47.552;7.606;2023-04-24T14:22:42;18.60;99.90
20985;DHT22;10651;47.552;7.606;2023-04-24T14:25:08;18.70;99.90
20985;DHT22;10651;47.552;7.606;2023-04-24T14:27:34;18.90;99.90
20985;DHT22;10651;47.552;7.606;2023-04-24T14:30:00;19.10;99.90
20985;DHT22;10651;47.552;7.606;2023-04-24T14:32:26;18.90;99.90
20985;DHT22;10651;47.552;7.606;2023-04-24T14:34:51;18.80;99.90
20985;DHT22;10651;47.552;7.606;2023-04-24T14:37:17;18.50;99.90
20985;DHT22;10651;47.552;7.606;2023-04-24T14:39:43;18.90;99.90
20985;DHT22;10651;47.552;7.606;2023-04-24T14:42:08;19.10;99.90
20985;DHT22;10651;47.552;7.606;2023-04-24T14:44:34;19.00;99.90
20985;DHT22;10651;47.552;7.606;2023-04-24T14:47:03;19.00;99.90
20985;DHT22;10651;47.552;7.606;2023-04-24T14:49:28;19.00;99.90
20985;DHT22;10651;47.552;7.606;2023-04-24T14:51:54;19.20;99.90
20985;DHT22;10651;47.552;7.606;2023-04-24T14:54:20;19.50;99.90
20985;DHT22;10651;47.552;7.606;2023-04-24T14:56:48;19.00;99.90
20985;DHT22;10651;47.552;7.606;2023-04-24T14:59:14;18.70;99.90
20985;DHT22;10651;47.552;7.606;2023-04-24T15:01:40;18.80;99.90
20985;DHT22;10651;47.552;7.606;2023-04-24T15:04:06;18.60;99.90
20985;DHT22;10651;47.552;7.606;2023-04-24T15:06:31;18.40;99.90
20985;DHT22;10651;47.552;7.606;2023-04-24T15:08:58;18.30;99.90
20985;DHT22;10651;47.552;7.606;2023-04-24T15:11:23;18.30;99.90
20985;DHT22;10651;47.552;7.606;2023-04-24T15:13:50;18.30;99.90
20985;DHT22;10651;47.552;7.606;2023-04-24T15:16:15;18.40;99.90
20985;DHT22;10651;47.552;7.606;2023-04-24T15:18:41;18.30;99.90
20985;DHT22;10651;47.552;7.606;2023-04-24T15:21:07;18.00;99.90
20985;DHT22;10651;47.552;7.606;2023-04-24T15:23:32;17.60;99.90
20985;DHT22;10651;47.552;7.606;2023-04-24T15:25:58;17.10;99.90
20985;DHT22;10651;47.552;7.606;2023-04-24T15:28:27;17.10;99.90
20985;DHT22;10651;47.552;7.606;2023-04-24T15:30:53;17.00;99.90
20985;DHT22;10651;47.552;7.606;2023-04-24T15:33:18;16.90;99.90
20985;DHT22;10651;47.552;7.606;2023-04-24T15:35:44;16.80;99.90
20985;DHT22;10651;47.552;7.606;2023-04-24T15:38:10;16.70;99.90
20985;DHT22;10651;47.552;7.606;2023-04-24T15:40:36;16.80;99.90
20985;DHT22;10651;47.552;7.606;2023-04-24T15:43:02;16.80;99.90
20985;DHT22;10651;47.552;7.606;2023-04-24T15:45:28;16.70;99.90
20985;DHT22;10651;47.552;7.606;2023-04-24T15:47:54;16.60;99.90
20985;DHT22;10651;47.552;7.606;2023-04-24T15:50:20;16.90;99.90
20985;DHT22;10651;47.552;7.606;2023-04-24T15:52:47;16.90;99.90
20985;DHT22;10651;47.552;7.606;2023-04-24T15:55:12;17.00;99.90
20985;DHT22;10651;47.552;7.606;2023-04-24T15:57:39;16.90;99.90
20985;DHT22;10651;47.552;7.606;2023-04-24T16:00:05;16.80;99.90
20985;DHT22;10651;47.552;7.606;2023-04-24T16:02:31;16.70;99.90
20985;DHT22;10651;47.552;7.606;2023-04-24T16:04:57;16.40;99.90
20985;DHT22;10651;47.552;7.606;2023-04-24T16:07:23;16.30;99.90
20985;DHT22;10651;47.552;7.606;2023-04-24T16:09:48;16.40;99.90
20985;DHT22;10651;47.552;7.606;2023-04-24T16:12:14;16.50;99.90
20985;DHT22;10651;47.552;7.606;2023-04-24T16:14:40;16.30;99.90
20985;DHT22;10651;47.552;7.606;2023-04-24T16:17:06;16.20;99.90
20985;DHT22;10651;47.552;7.606;2023-04-24T16:19:32;16.40;99.90
20985;DHT22;10651;47.552;7.606;2023-04-24T16:21:58;16.50;99.90
20985;DHT22;10651;47.552;7.606;2023-04-24T16:24:25;16.30;99.90
20985;DHT22;10651;47.552;7.606;2023-04-24T16:26:51;16.30;99.90
20985;DHT22;10651;47.552;7.606;2023-04-24T16:29:19;16.10;99.90
20985;DHT22;10651;47.552;7.606;2023-04-24T16:31:45;16.20;99.90
20985;DHT22;10651;47.552;7.606;2023-04-24T16:34:11;16.20;99.90
20985;DHT22;10651;47.552;7.606;2023-04-24T16:36:44;16.30;99.90
20985;DHT22;10651;47.552;7.606;2023-04-24T16:42:25;15.90;99.90
20985;DHT22;10651;47.552;7.606;2023-04-24T16:45:05;15.90;99.90
20985;DHT22;10651;47.552;7.606;2023-04-24T16:47:37;15.80;99.90
20985;DHT22;10651;47.552;7.606;2023-04-24T16:50:40;15.50;99.90
20985;DHT22;10651;47.552;7.606;2023-04-24T16:53:23;15.50;99.90
20985;DHT22;10651;47.552;7.606;2023-04-24T16:58:57;15.70;99.90
20985;DHT22;10651;47.552;7.606;2023-04-24T17:01:27;15.60;99.90
20985;DHT22;10651;47.552;7.606;2023-04-24T17:03:52;15.60;99.90
20985;DHT22;10651;47.552;7.606;2023-04-24T17:06:18;15.40;99.90
20985;DHT22;10651;47.552;7.606;2023-04-24T17:08:44;15.40;99.90
20985;DHT22;10651;47.552;7.606;2023-04-24T17:11:10;15.40;99.90
20985;DHT22;10651;47.552;7.606;2023-04-24T17:13:38;15.20;99.90
20985;DHT22;10651;47.552;7.606;2023-04-24T17:16:07;15.00;99.90
20985;DHT22;10651;47.552;7.606;2023-04-24T17:18:40;15.00;99.90
20985;DHT22;10651;47.552;7.606;2023-04-24T17:21:22;15.10;99.90
20985;DHT22;10651;47.552;7.606;2023-04-24T17:23:54;15.10;99.90
20985;DHT22;10651;47.552;7.606;2023-04-24T17:27:01;14.90;99.90
20985;DHT22;10651;47.552;7.606;2023-04-24T17:35:40;15.00;99.90
20985;DHT22;10651;47.552;7.606;2023-04-24T17:45:05;15.20;99.90
20985;DHT22;10651;47.552;7.606;2023-04-24T17:47:53;15.10;99.90
20985;DHT22;10651;47.552;7.606;2023-04-24T17:50:21;14.70;99.90
20985;DHT22;10651;47.552;7.606;2023-04-24T17:52:52;14.60;99.90
20985;DHT22;10651;47.552;7.606;2023-04-24T17:55:18;14.50;99.90
20985;DHT22;10651;47.552;7.606;2023-04-24T17:57:44;14.60;99.90
20985;DHT22;10651;47.552;7.606;2023-04-24T18:00:13;14.60;99.90
20985;DHT22;10651;47.552;7.606;2023-04-24T18:02:39;14.70;99.90
20985;DHT22;10651;47.552;7.606;2023-04-24T18:05:04;14.50;99.90
20985;DHT22;10651;47.552;7.606;2023-04-24T18:07:30;14.50;99.90
20985;DHT22;10651;47.552;7.606;2023-04-24T18:09:56;14.30;99.90
20985;DHT22;10651;47.552;7.606;2023-04-24T18:12:22;14.20;99.90
20985;DHT22;10651;47.552;7.606;2023-04-24T18:14:48;14.20;99.90
20985;DHT22;10651;47.552;7.606;2023-04-24T18:17:21;14.10;99.90
20985;DHT22;10651;47.552;7.606;2023-04-24T18:19:47;14.10;99.90
20985;DHT22;10651;47.552;7.606;2023-04-24T18:22:12;14.00;99.90
20985;DHT22;10651;47.552;7.606;2023-04-24T18:24:41;13.90;99.90
20985;DHT22;10651;47.552;7.606;2023-04-24T18:27:07;13.80;99.90
20985;DHT22;10651;47.552;7.606;2023-04-24T18:29:32;13.70;99.90
20985;DHT22;10651;47.552;7.606;2023-04-24T18:31:58;13.70;99.90
20985;DHT22;10651;47.552;7.606;2023-04-24T18:34:27;13.70;99.90
20985;DHT22;10651;47.552;7.606;2023-04-24T18:36:53;13.50;99.90
20985;DHT22;10651;47.552;7.606;2023-04-24T18:39:19;13.50;99.90
20985;DHT22;10651;47.552;7.606;2023-04-24T18:41:47;13.50;99.90
20985;DHT22;10651;47.552;7.606;2023-04-24T18:44:12;13.40;99.90
20985;DHT22;10651;47.552;7.606;2023-04-24T18:46:43;13.40;99.90
20985;DHT22;10651;47.552;7.606;2023-04-24T18:49:08;13.40;99.90
20985;DHT22;10651;47.552;7.606;2023-04-24T18:51:45;13.40;99.90
20985;DHT22;10651;47.552;7.606;2023-04-24T18:54:43;13.40;99.90
20985;DHT22;10651;47.552;7.606;2023-04-24T19:00:44;13.50;99.90
20985;DHT22;10651;47.552;7.606;2023-04-24T19:03:18;13.60;99.90
20985;DHT22;10651;47.552;7.606;2023-04-24T19:05:53;13.60;99.90
20985;DHT22;10651;47.552;7.606;2023-04-24T19:08:51;13.50;99.90
20985;DHT22;10651;47.552;7.606;2023-04-24T19:11:28;13.70;99.90
20985;DHT22;10651;47.552;7.606;2023-04-24T19:14:12;13.60;99.90
20985;DHT22;10651;47.552;7.606;2023-04-24T19:16:44;13.60;99.90
20985;DHT22;10651;47.552;7.606;2023-04-24T19:19:25;13.60;99.90
20985;DHT22;10651;47.552;7.606;2023-04-24T19:22:02;13.60;99.90
20985;DHT22;10651;47.552;7.606;2023-04-24T19:25:15;13.50;99.90
20985;DHT22;10651;47.552;7.606;2023-04-24T19:31:27;13.50;99.90
20985;DHT22;10651;47.552;7.606;2023-04-24T19:34:01;13.50;99.90
20985;DHT22;10651;47.552;7.606;2023-04-24T19:36:28;13.40;99.90
20985;DHT22;10651;47.552;7.606;2023-04-24T19:38:55;13.50;99.90
20985;DHT22;10651;47.552;7.606;2023-04-24T19:41:21;13.50;99.90
20985;DHT22;10651;47.552;7.606;2023-04-24T19:44:00;13.40;99.90
20985;DHT22;10651;47.552;7.606;2023-04-24T19:57:33;13.50;99.90
20985;DHT22;10651;47.552;7.606;2023-04-24T20:00:24;13.50;99.90
20985;DHT22;10651;47.552;7.606;2023-04-24T20:03:20;13.50;99.90
20985;DHT22;10651;47.552;7.606;2023-04-24T20:05:55;13.50;99.90
20985;DHT22;10651;47.552;7.606;2023-04-24T20:08:58;13.50;99.90
20985;DHT22;10651;47.552;7.606;2023-04-24T20:11:35;13.50;99.90
20985;DHT22;10651;47.552;7.606;2023-04-24T20:14:53;13.50;99.90
20985;DHT22;10651;47.552;7.606;2023-04-24T20:17:21;13.40;99.90
20985;DHT22;10651;47.552;7.606;2023-04-24T20:19:52;13.40;99.90
20985;DHT22;10651;47.552;7.606;2023-04-24T20:22:32;13.40;99.90
20985;DHT22;10651;47.552;7.606;2023-04-24T20:28:15;13.30;99.90
20985;DHT22;10651;47.552;7.606;2023-04-24T20:30:47;13.40;99.90
20985;DHT22;10651;47.552;7.606;2023-04-24T20:33:22;13.30;99.90
20985;DHT22;10651;47.552;7.606;2023-04-24T20:35:59;13.30;99.90
20985;DHT22;10651;47.552;7.606;2023-04-24T20:38:31;13.30;99.90
20985;DHT22;10651;47.552;7.606;2023-04-24T20:43:47;13.20;99.90
20985;DHT22;10651;47.552;7.606;2023-04-24T20:46:22;13.30;99.90
20985;DHT22;10651;47.552;7.606;2023-04-24T20:48:50;13.30;99.90
20985;DHT22;10651;47.552;7.606;2023-04-24T20:51:39;13.30;99.90
20985;DHT22;10651;47.552;7.606;2023-04-24T20:54:05;13.30;99.90
20985;DHT22;10651;47.552;7.606;2023-04-24T20:56:31;13.20;99.90
20985;DHT22;10651;47.552;7.606;2023-04-24T20:58:57;13.10;99.90
20985;DHT22;10651;47.552;7.606;2023-04-24T21:01:22;13.20;99.90
20985;DHT22;10651;47.552;7.606;2023-04-24T21:03:48;13.20;99.90
20985;DHT22;10651;47.552;7.606;2023-04-24T21:06:14;13.20;99.90
20985;DHT22;10651;47.552;7.606;2023-04-24T21:08:40;13.20;99.90
20985;DHT22;10651;47.552;7.606;2023-04-24T21:11:06;13.20;99.90
20985;DHT22;10651;47.552;7.606;2023-04-24T21:13:32;13.20;99.90
20985;DHT22;10651;47.552;7.606;2023-04-24T21:15:58;13.20;99.90
20985;DHT22;10651;47.552;7.606;2023-04-24T21:18:23;13.20;99.90
20985;DHT22;10651;47.552;7.606;2023-04-24T21:20:50;13.10;99.90
20985;DHT22;10651;47.552;7.606;2023-04-24T21:23:17;13.10;99.90
20985;DHT22;10651;47.552;7.606;2023-04-24T21:25:43;13.10;99.90
20985;DHT22;10651;47.552;7.606;2023-04-24T21:28:09;13.20;99.90
20985;DHT22;10651;47.552;7.606;2023-04-24T21:30:36;13.10;99.90
20985;DHT22;10651;47.552;7.606;2023-04-24T21:33:01;13.10;99.90
20985;DHT22;10651;47.552;7.606;2023-04-24T21:35:27;13.10;99.90
20985;DHT22;10651;47.552;7.606;2023-04-24T21:37:53;13.20;99.90
20985;DHT22;10651;47.552;7.606;2023-04-24T21:40:18;13.20;99.90
20985;DHT22;10651;47.552;7.606;2023-04-24T21:42:44;13.20;99.90
20985;DHT22;10651;47.552;7.606;2023-04-24T21:45:10;13.20;99.90
20985;DHT22;10651;47.552;7.606;2023-04-24T21:47:36;13.10;99.90
20985;DHT22;10651;47.552;7.606;2023-04-24T21:50:02;13.10;99.90
20985;DHT22;10651;47.552;7.606;2023-04-24T21:52:29;13.00;99.90
20985;DHT22;10651;47.552;7.606;2023-04-24T21:54:55;13.00;99.90
20985;DHT22;10651;47.552;7.606;2023-04-24T21:57:20;12.90;99.90
20985;DHT22;10651;47.552;7.606;2023-04-24T21:59:46;12.80;99.90
20985;DHT22;10651;47.552;7.606;2023-04-24T22:02:12;12.70;99.90
20985;DHT22;10651;47.552;7.606;2023-04-24T22:04:38;12.70;99.90
20985;DHT22;10651;47.552;7.606;2023-04-24T22:07:03;12.70;99.90
20985;DHT22;10651;47.552;7.606;2023-04-24T22:09:29;12.70;99.90
20985;DHT22;10651;47.552;7.606;2023-04-24T22:11:55;12.70;99.90
20985;DHT22;10651;47.552;7.606;2023-04-24T22:14:20;12.70;99.90
20985;DHT22;10651;47.552;7.606;2023-04-24T22:16:46;12.70;99.90
20985;DHT22;10651;47.552;7.606;2023-04-24T22:19:13;12.70;99.90
20985;DHT22;10651;47.552;7.606;2023-04-24T22:21:39;12.60;99.90
20985;DHT22;10651;47.552;7.606;2023-04-24T22:24:06;12.60;99.90
20985;DHT22;10651;47.552;7.606;2023-04-24T22:26:32;12.50;99.90
